Disclaimer

Please do not use the information listed here in-flight or in-navigation, as they are not provided to us by the airports but are provided by volunteers, so they might be outdated.

Search


Regions


Airport information page

Radio informations:
Tower (TWR) - 118.1 MHz
Ground (GND) - 121.9 MHz
Automatic Terminal Information Service (ATIS) - 128.4 MHz
APP DIRECTOR - 120.2 MHz
RDR - 134.5 MHz

Airport informations:
Latitude: 01° 29' 04.91" N
Longitude: 110° 20' 48.96" E
Elevation: 89 feet - 27 meters
Operating hours: N/A
Operating agency: Civil government, landing fees and diplomatic clearance may be required
Timezone: UTC+8
Fuel: Jet A1, without icing nhibitor.

Runway information:
07/25 - 8051 x 151 feet< - >2454 x 46 meters

Recent METARs:
WBGG 151030Z 14003KT 110V170 9999 FEW015CB SCT020 BKN150 30/25 Q1008 NOSIG
WBGG 151100Z 30003KT 280V340 9999 FEW015CB SCT150 BKN300 30/25 Q1009 NOSIG
WBGG 151130Z 00000KT 9999 FEW015CB SCT150 BKN300 30/26 Q1009 NOSIG

Airport on the map: